createdAt,value
2018-03-14T00:00:57.073Z,1.90
2018-03-14T00:03:25.892Z,1.90
2018-03-14T00:05:53.977Z,1.70
2018-03-14T00:08:22.792Z,1.60
2018-03-14T00:10:50.873Z,1.63
2018-03-14T00:13:18.904Z,3.60
2018-03-14T00:15:47.447Z,2.10
2018-03-14T00:18:15.496Z,1.60
2018-03-14T00:20:44.374Z,2.57
2018-03-14T00:23:12.453Z,2.80
2018-03-14T00:25:40.556Z,2.90
2018-03-14T00:28:08.593Z,1.70
2018-03-14T00:30:36.668Z,2.60
2018-03-14T00:33:04.711Z,3.40
2018-03-14T00:35:32.824Z,3.33
2018-03-14T00:38:00.845Z,3.63
2018-03-14T00:40:28.939Z,1.90
2018-03-14T00:42:57.034Z,1.93
2018-03-14T00:45:25.092Z,1.67
2018-03-14T00:47:53.154Z,2.07
2018-03-14T00:50:21.204Z,2.40
2018-03-14T00:52:50.020Z,2.07
2018-03-14T00:55:18.838Z,2.67
2018-03-14T00:57:46.886Z,2.60
2018-03-14T01:00:14.978Z,2.20
2018-03-14T01:02:43.805Z,2.23
2018-03-14T01:05:11.856Z,2.30
2018-03-14T01:07:40.674Z,2.50
2018-03-14T01:10:08.711Z,2.30
2018-03-14T01:12:36.824Z,2.63
2018-03-14T01:15:04.884Z,2.30
2018-03-14T01:17:32.945Z,2.50
2018-03-14T01:20:01.948Z,2.60
2018-03-14T01:22:30.095Z,2.50
2018-03-14T01:24:58.130Z,2.40
2018-03-14T01:27:26.242Z,2.43
2018-03-14T01:29:54.302Z,2.50
2018-03-14T01:32:22.397Z,2.53
2018-03-14T01:34:50.443Z,2.40
2018-03-14T01:37:18.500Z,2.40
2018-03-14T01:39:46.641Z,2.90
2018-03-14T01:42:14.697Z,2.70
2018-03-14T01:44:42.749Z,2.60
2018-03-14T01:47:10.841Z,2.50
2018-03-14T01:49:38.885Z,2.60
2018-03-14T01:52:06.935Z,2.70
2018-03-14T01:54:34.980Z,2.90
2018-03-14T01:57:03.592Z,2.60
2018-03-14T01:59:31.626Z,2.63
2018-03-14T02:01:59.733Z,2.50
2018-03-14T02:04:28.609Z,3.00
2018-03-14T02:06:57.571Z,2.70
2018-03-14T02:09:25.645Z,6.80
2018-03-14T02:11:53.695Z,3.50
2018-03-14T02:14:21.731Z,2.77
2018-03-14T02:16:50.308Z,2.77
2018-03-14T02:19:18.362Z,2.90
2018-03-14T02:21:47.175Z,2.77
2018-03-14T02:24:15.988Z,2.80
2018-03-14T02:26:44.026Z,3.30
2018-03-14T02:29:12.089Z,2.93
2018-03-14T02:31:40.143Z,2.70
2018-03-14T02:34:08.197Z,2.67
2018-03-14T02:39:44.427Z,2.43
2018-03-14T02:42:12.480Z,3.10
2018-03-14T02:44:40.525Z,3.20
2018-03-14T02:47:08.574Z,2.87
2018-03-14T02:49:36.633Z,3.27
2018-03-14T02:52:04.689Z,3.17
2018-03-14T02:54:32.848Z,3.60
2018-03-14T02:57:01.634Z,3.50
2018-03-14T02:59:30.075Z,3.40
2018-03-14T03:01:58.138Z,3.70
2018-03-14T03:04:26.181Z,3.50
2018-03-14T03:06:55.093Z,3.70
2018-03-14T03:09:23.131Z,3.80
2018-03-14T03:11:51.202Z,3.30
2018-03-14T03:14:19.253Z,3.40
2018-03-14T03:16:47.311Z,3.87
2018-03-14T03:19:16.126Z,4.27
2018-03-14T03:21:44.941Z,4.20
2018-03-14T03:24:12.985Z,4.27
2018-03-14T03:26:41.818Z,4.17
2018-03-14T03:29:09.843Z,4.27
2018-03-14T03:31:37.902Z,4.17
2018-03-14T03:34:06.053Z,4.10
2018-03-14T03:36:34.884Z,4.20
2018-03-14T03:39:03.004Z,3.87
2018-03-14T03:41:31.082Z,4.23
2018-03-14T03:43:59.112Z,4.20
2018-03-14T03:46:27.231Z,4.20
2018-03-14T03:48:55.271Z,4.33
2018-03-14T03:51:24.091Z,4.60
2018-03-14T03:53:52.140Z,4.30
2018-03-14T03:56:20.174Z,4.50
2018-03-14T03:58:48.232Z,4.20
2018-03-14T04:01:17.588Z,4.17
2018-03-14T04:03:45.651Z,4.10
2018-03-14T04:06:14.869Z,4.83
2018-03-14T04:08:42.888Z,4.43
2018-03-14T04:11:11.000Z,4.63
2018-03-14T04:13:39.028Z,4.40
2018-03-14T04:16:07.071Z,4.47
2018-03-14T04:18:35.145Z,5.17
2018-03-14T04:21:03.188Z,5.00
2018-03-14T04:23:31.341Z,4.50
2018-03-14T04:25:59.396Z,5.20
2018-03-14T04:28:28.246Z,4.90
2018-03-14T04:30:57.050Z,4.50
2018-03-14T04:33:25.131Z,4.80
2018-03-14T04:35:53.184Z,4.67
2018-03-14T04:38:21.222Z,4.80
2018-03-14T04:40:49.276Z,5.07
2018-03-14T04:43:17.402Z,4.83
2018-03-14T04:45:45.414Z,4.87
2018-03-14T04:48:13.543Z,4.80
2018-03-14T04:50:41.580Z,5.43
2018-03-14T04:53:09.639Z,4.90
2018-03-14T04:55:38.457Z,5.20
2018-03-14T04:58:06.501Z,5.33
2018-03-14T05:00:35.146Z,5.03
2018-03-14T05:03:03.210Z,5.10
2018-03-14T05:05:32.028Z,5.23
2018-03-14T05:08:00.111Z,5.13
2018-03-14T05:10:28.144Z,5.80
2018-03-14T05:12:56.202Z,5.50
2018-03-14T05:15:24.258Z,5.37
2018-03-14T05:17:52.980Z,5.40
2018-03-14T05:20:21.028Z,5.90
2018-03-14T05:22:49.092Z,6.03
2018-03-14T05:25:17.899Z,5.90
2018-03-14T05:27:45.958Z,6.40
2018-03-14T05:30:14.056Z,5.83
2018-03-14T05:32:42.114Z,6.37
2018-03-14T05:35:10.196Z,6.73
2018-03-14T05:37:38.228Z,5.53
2018-03-14T05:40:07.136Z,6.03
2018-03-14T05:42:35.170Z,5.57
2018-03-14T05:45:03.224Z,6.40
2018-03-14T05:47:31.281Z,6.03
2018-03-14T05:49:59.345Z,6.40
2018-03-14T05:52:27.407Z,6.10
2018-03-14T05:54:56.324Z,6.17
2018-03-14T05:57:24.357Z,6.67
2018-03-14T05:59:52.477Z,6.03
2018-03-14T06:02:20.543Z,6.23
2018-03-14T06:04:48.592Z,6.23
2018-03-14T06:07:16.651Z,6.47
2018-03-14T06:09:45.468Z,5.80
2018-03-14T06:12:15.987Z,5.40
2018-03-14T06:14:44.039Z,5.90
2018-03-14T06:17:12.084Z,6.10
2018-03-14T06:19:40.140Z,6.97
2018-03-14T06:22:08.187Z,5.90
2018-03-14T06:24:36.245Z,6.53
2018-03-14T06:27:04.311Z,6.27
2018-03-14T06:29:32.344Z,6.53
2018-03-14T06:32:00.404Z,5.50
2018-03-14T06:34:28.451Z,5.50
2018-03-14T06:36:57.265Z,7.67
2018-03-14T06:39:25.487Z,6.00
2018-03-14T06:41:53.531Z,7.63
2018-03-14T06:44:21.611Z,19.20
2018-03-14T06:46:49.668Z,13.63
2018-03-14T06:49:17.732Z,8.50
2018-03-14T06:51:45.777Z,7.13
2018-03-14T06:54:13.840Z,7.50
2018-03-14T06:56:41.904Z,9.40
2018-03-14T07:02:34.527Z,6.80
2018-03-14T07:05:14.380Z,6.70
2018-03-14T07:07:42.435Z,6.10
2018-03-14T07:10:10.488Z,6.43
2018-03-14T07:12:38.557Z,6.00
2018-03-14T07:15:06.613Z,6.17
2018-03-14T07:17:34.655Z,10.57
2018-03-14T07:20:02.715Z,6.30
2018-03-14T07:22:30.772Z,6.10
2018-03-14T07:24:58.839Z,6.00
2018-03-14T07:27:27.664Z,5.97
2018-03-14T07:29:56.702Z,6.50
2018-03-14T07:32:24.760Z,12.07
2018-03-14T07:34:52.832Z,6.30
2018-03-14T07:37:20.883Z,5.73
2018-03-14T07:39:49.704Z,5.67
2018-03-14T07:42:17.754Z,5.53
2018-03-14T07:44:45.811Z,6.17
2018-03-14T07:47:13.865Z,6.10
2018-03-14T07:49:41.909Z,6.33
2018-03-14T07:52:09.952Z,6.87
2018-03-14T07:54:38.008Z,7.03
2018-03-14T07:57:06.099Z,7.20
2018-03-14T07:59:34.145Z,6.77
2018-03-14T08:02:02.968Z,7.07
2018-03-14T08:04:31.003Z,7.57
2018-03-14T08:06:59.068Z,7.33
2018-03-14T08:09:27.190Z,7.87
2018-03-14T08:11:55.765Z,7.93
2018-03-14T08:14:23.821Z,7.83
2018-03-14T08:16:51.881Z,7.93
2018-03-14T08:19:19.931Z,8.43
2018-03-14T08:21:48.031Z,8.70
2018-03-14T08:24:16.889Z,9.63
2018-03-14T08:26:44.931Z,9.43
2018-03-14T08:29:12.996Z,8.73
2018-03-14T08:31:41.814Z,8.57
2018-03-14T08:34:09.947Z,14.27
2018-03-14T08:36:38.025Z,9.47
2018-03-14T08:39:06.118Z,14.70
2018-03-14T08:41:34.233Z,12.50
2018-03-14T08:44:02.262Z,8.87
2018-03-14T08:46:30.322Z,9.27
2018-03-14T08:48:58.371Z,8.53
2018-03-14T08:51:26.438Z,8.83
2018-03-14T08:53:54.503Z,8.80
2018-03-14T08:56:22.558Z,9.30
2018-03-14T08:58:50.619Z,9.40
2018-03-14T09:01:18.732Z,9.03
2018-03-14T09:03:47.069Z,9.03
2018-03-14T09:06:15.135Z,8.97
2018-03-14T09:08:43.199Z,8.73
2018-03-14T09:11:11.291Z,8.43
2018-03-14T09:13:40.060Z,8.57
2018-03-14T09:16:08.107Z,7.33
2018-03-14T09:18:37.373Z,8.23
2018-03-14T09:21:06.178Z,8.43
2018-03-14T09:23:34.316Z,8.20
2018-03-14T09:26:03.276Z,8.80
2018-03-14T09:28:31.326Z,8.10
2018-03-14T09:30:59.400Z,7.40
2018-03-14T09:33:28.216Z,7.17
2018-03-14T09:35:56.788Z,20.50
2018-03-14T09:38:25.603Z,13.50
2018-03-14T09:40:53.664Z,12.23
2018-03-14T09:43:21.807Z,5.87
2018-03-14T09:45:49.856Z,6.60
2018-03-14T09:48:17.908Z,7.07
2018-03-14T09:50:45.964Z,5.87
2018-03-14T09:53:14.008Z,6.37
2018-03-14T09:55:42.043Z,6.80
2018-03-14T09:58:10.092Z,7.03
2018-03-14T10:00:38.141Z,7.83
2018-03-14T10:03:06.205Z,7.00
2018-03-14T10:05:34.244Z,6.03
2018-03-14T10:08:02.305Z,6.70
2018-03-14T10:10:30.386Z,5.50
2018-03-14T10:12:58.450Z,6.00
2018-03-14T10:15:26.478Z,5.70
2018-03-14T10:17:54.947Z,5.90
2018-03-14T10:20:22.981Z,6.60
2018-03-14T10:22:51.037Z,5.23
2018-03-14T10:25:19.094Z,6.47
2018-03-14T10:27:47.144Z,5.33
2018-03-14T10:30:15.197Z,4.63
2018-03-14T10:32:43.258Z,4.87
2018-03-14T10:35:11.300Z,4.83
2018-03-14T10:37:39.350Z,4.90
2018-03-14T10:40:07.413Z,4.93
2018-03-14T10:42:35.471Z,4.37
2018-03-14T10:45:03.519Z,4.47
2018-03-14T10:47:31.577Z,4.90
2018-03-14T10:49:59.623Z,5.80
2018-03-14T10:52:27.697Z,6.73
2018-03-14T10:54:56.503Z,5.03
2018-03-14T10:57:25.368Z,4.70
2018-03-14T10:59:53.504Z,5.40
2018-03-14T11:02:23.356Z,4.77
2018-03-14T11:04:51.400Z,5.17
2018-03-14T11:07:19.460Z,4.63
2018-03-14T11:09:47.525Z,4.83
2018-03-14T11:12:15.605Z,4.63
2018-03-14T11:14:43.643Z,4.80
2018-03-14T11:17:11.737Z,4.53
2018-03-14T11:19:39.780Z,4.47
2018-03-14T11:22:08.602Z,4.70
2018-03-14T11:24:36.661Z,4.17
2018-03-14T11:27:04.715Z,4.17
2018-03-14T11:29:32.758Z,4.87
2018-03-14T11:32:00.816Z,4.37
2018-03-14T11:34:29.663Z,4.30
2018-03-14T11:36:57.702Z,4.23
2018-03-14T11:39:26.522Z,4.33
2018-03-14T11:41:54.601Z,3.87
2018-03-14T11:44:22.646Z,4.80
2018-03-14T11:46:50.706Z,4.20
2018-03-14T11:49:18.801Z,4.63
2018-03-14T11:51:46.858Z,3.90
2018-03-14T11:54:15.260Z,3.90
2018-03-14T11:56:43.309Z,4.10
2018-03-14T11:59:11.392Z,4.00
2018-03-14T12:01:39.464Z,4.57
2018-03-14T12:04:08.287Z,4.03
2018-03-14T12:06:36.360Z,4.18
2018-03-14T12:09:04.407Z,4.30
2018-03-14T12:11:32.502Z,3.80
2018-03-14T12:14:00.550Z,4.20
2018-03-14T12:16:28.599Z,4.73
2018-03-14T12:18:56.673Z,4.40
2018-03-14T12:21:25.206Z,4.17
2018-03-14T12:23:53.304Z,4.50
2018-03-14T12:26:21.359Z,4.72
2018-03-14T12:28:49.477Z,3.93
2018-03-14T12:31:17.556Z,4.30
2018-03-14T12:33:45.627Z,4.90
2018-03-14T12:36:13.680Z,4.13
2018-03-14T12:38:41.757Z,4.90
2018-03-14T12:41:09.816Z,5.43
2018-03-14T12:43:38.639Z,4.73
2018-03-14T12:46:06.683Z,5.40
2018-03-14T12:48:34.745Z,5.50
2018-03-14T12:51:03.047Z,5.27
2018-03-14T12:53:31.874Z,6.40
2018-03-14T12:55:59.928Z,5.60
2018-03-14T12:58:28.133Z,4.60
2018-03-14T13:00:56.556Z,4.43
2018-03-14T13:03:25.376Z,4.13
2018-03-14T13:05:53.728Z,3.80
2018-03-14T13:08:22.832Z,7.47
2018-03-14T13:10:50.879Z,6.18
2018-03-14T13:13:18.955Z,3.90
2018-03-14T13:15:47.034Z,3.73
2018-03-14T13:18:15.104Z,3.70
2018-03-14T13:20:43.182Z,3.80
2018-03-14T13:23:11.265Z,3.80
2018-03-14T13:25:40.087Z,4.57
2018-03-14T13:28:08.276Z,9.97
2018-03-14T13:30:36.365Z,4.10
2018-03-14T13:33:04.437Z,3.97
2018-03-14T13:35:32.501Z,3.50
2018-03-14T13:38:00.595Z,3.20
2018-03-14T13:40:28.709Z,3.57
2018-03-14T13:42:56.764Z,3.07
2018-03-14T13:45:24.841Z,3.30
2018-03-14T13:47:52.907Z,3.83
2018-03-14T13:50:21.736Z,3.47
2018-03-14T13:52:50.001Z,3.63
2018-03-14T13:55:18.084Z,3.43
2018-03-14T13:57:46.164Z,3.20
2018-03-14T14:00:14.237Z,3.43
2018-03-14T14:02:43.317Z,3.70
2018-03-14T14:05:11.371Z,3.43
2018-03-14T14:07:39.434Z,3.53
2018-03-14T14:10:07.532Z,4.27
2018-03-14T14:12:35.595Z,3.33
2018-03-14T14:15:03.691Z,3.70
2018-03-14T14:17:31.769Z,3.40
2018-03-14T14:20:00.951Z,2.93
2018-03-14T14:22:29.773Z,3.93
2018-03-14T14:24:57.835Z,3.50
2018-03-14T14:27:25.977Z,3.80
2018-03-14T14:29:54.026Z,3.50
2018-03-14T14:32:22.124Z,4.00
2018-03-14T14:34:50.192Z,3.90
2018-03-14T14:37:18.294Z,4.10
2018-03-14T14:39:46.359Z,4.07
2018-03-14T14:42:14.440Z,3.80
2018-03-14T14:44:42.501Z,4.10
2018-03-14T14:47:10.550Z,4.30
2018-03-14T14:49:38.600Z,3.77
2018-03-14T14:52:06.672Z,4.30
2018-03-14T14:54:34.728Z,4.80
2018-03-14T14:57:02.779Z,4.40
2018-03-14T14:59:30.920Z,4.53
2018-03-14T15:01:58.950Z,4.73
2018-03-14T15:04:27.007Z,4.10
2018-03-14T15:06:56.173Z,4.60
2018-03-14T15:09:24.224Z,4.20
2018-03-14T15:11:52.284Z,3.67
2018-03-14T15:14:20.371Z,4.13
2018-03-14T15:16:48.435Z,4.37
2018-03-14T15:19:16.463Z,5.13
2018-03-14T15:21:44.512Z,4.70
2018-03-14T15:24:12.570Z,4.67
2018-03-14T15:26:41.400Z,4.13
2018-03-14T15:29:09.478Z,4.53
2018-03-14T15:31:37.527Z,4.43
2018-03-14T15:34:06.350Z,4.00
2018-03-14T15:36:35.221Z,4.40
2018-03-14T15:39:03.225Z,4.07
2018-03-14T15:41:32.096Z,4.30
2018-03-14T15:44:00.148Z,3.97
2018-03-14T15:46:28.195Z,4.10
2018-03-14T15:48:56.239Z,4.20
2018-03-14T15:51:24.321Z,3.93
2018-03-14T15:53:52.373Z,3.83
2018-03-14T15:56:20.441Z,4.70
2018-03-14T15:58:48.541Z,6.00
2018-03-14T16:01:16.634Z,4.50
2018-03-14T16:03:44.718Z,4.70
2018-03-14T16:06:12.797Z,4.80
2018-03-14T16:08:40.845Z,4.43
2018-03-14T16:11:09.708Z,4.53
2018-03-14T16:13:37.770Z,5.13
2018-03-14T16:16:05.849Z,5.77
2018-03-14T16:18:33.913Z,4.20
2018-03-14T16:21:01.962Z,4.50
2018-03-14T16:23:42.807Z,4.40
2018-03-14T16:26:10.943Z,4.00
2018-03-14T16:28:39.785Z,4.40
2018-03-14T16:31:07.853Z,4.87
2018-03-14T16:33:35.921Z,5.10
2018-03-14T16:36:03.971Z,4.80
2018-03-14T16:38:32.026Z,4.73
2018-03-14T16:41:00.084Z,4.60
2018-03-14T16:43:38.750Z,5.10
2018-03-14T16:46:06.818Z,5.03
2018-03-14T16:48:34.874Z,4.60
2018-03-14T16:51:02.972Z,4.43
2018-03-14T16:53:31.032Z,4.53
2018-03-14T16:55:59.099Z,4.70
2018-03-14T16:58:28.054Z,4.90
2018-03-14T17:00:56.114Z,4.90
2018-03-14T17:03:24.188Z,5.20
2018-03-14T17:05:52.449Z,4.90
2018-03-14T17:08:20.512Z,4.77
2018-03-14T17:10:48.564Z,4.90
2018-03-14T17:13:16.617Z,5.03
2018-03-14T17:15:45.439Z,7.50
2018-03-14T17:18:13.508Z,6.43
2018-03-14T17:20:41.572Z,6.10
2018-03-14T17:23:10.424Z,6.17
2018-03-14T17:25:38.491Z,9.83
2018-03-14T17:28:06.565Z,17.40
2018-03-14T17:30:34.667Z,16.17
2018-03-14T17:33:03.471Z,26.57
2018-03-14T17:35:31.533Z,11.67
2018-03-14T17:37:59.583Z,7.27
2018-03-14T17:40:27.644Z,7.03
2018-03-14T17:42:55.726Z,7.77
2018-03-14T17:45:23.917Z,7.10
2018-03-14T17:47:52.020Z,8.50
2018-03-14T17:50:20.076Z,13.60
2018-03-14T17:52:48.148Z,21.37
2018-03-14T17:55:16.225Z,18.37
2018-03-14T17:57:44.298Z,20.30
2018-03-14T18:00:12.363Z,17.27
2018-03-14T18:02:41.198Z,11.73
2018-03-14T18:05:09.267Z,10.60
2018-03-14T18:07:37.391Z,8.53
2018-03-14T18:10:05.460Z,8.47
2018-03-14T18:12:33.540Z,8.70
2018-03-14T18:15:01.852Z,9.27
2018-03-14T18:17:30.114Z,9.73
2018-03-14T18:19:59.293Z,9.73
2018-03-14T18:22:28.113Z,11.70
2018-03-14T18:24:56.185Z,14.70
2018-03-14T18:27:24.319Z,13.40
2018-03-14T18:29:52.391Z,10.50
2018-03-14T18:32:20.485Z,10.67
2018-03-14T18:34:48.547Z,9.33
2018-03-14T18:37:16.612Z,11.10
2018-03-14T18:39:44.695Z,11.97
2018-03-14T18:42:12.760Z,10.27
2018-03-14T18:44:40.843Z,13.50
2018-03-14T18:47:08.907Z,11.07
2018-03-14T18:49:42.624Z,9.20
2018-03-14T18:52:10.735Z,6.53
2018-03-14T18:54:38.876Z,8.10
2018-03-14T18:57:06.935Z,7.87
2018-03-14T18:59:35.006Z,7.40
2018-03-14T19:02:03.077Z,8.13
2018-03-14T19:04:31.150Z,7.17
2018-03-14T19:06:59.215Z,7.70
2018-03-14T19:09:28.057Z,7.10
2018-03-14T19:11:56.675Z,8.20
2018-03-14T19:14:24.765Z,7.30
2018-03-14T19:16:52.824Z,8.57
2018-03-14T19:19:21.693Z,8.20
2018-03-14T19:21:50.528Z,7.33
2018-03-14T19:24:18.596Z,8.20
2018-03-14T19:26:46.649Z,8.00
2018-03-14T19:29:17.395Z,7.00
2018-03-14T19:31:45.416Z,7.33
2018-03-14T19:34:13.472Z,6.83
2018-03-14T19:36:41.560Z,7.63
2018-03-14T19:39:10.367Z,8.20
2018-03-14T19:41:38.773Z,7.13
2018-03-14T19:44:06.834Z,7.30
2018-03-14T19:46:34.895Z,8.63
2018-03-14T19:49:03.727Z,8.70
2018-03-14T19:51:31.786Z,7.13
2018-03-14T19:54:00.611Z,7.97
2018-03-14T19:56:28.654Z,7.70
2018-03-14T19:58:56.705Z,7.53
2018-03-14T20:01:24.761Z,7.80
2018-03-14T20:03:53.047Z,6.83
2018-03-14T20:06:21.843Z,7.13
2018-03-14T20:08:49.965Z,7.50
2018-03-14T20:11:17.957Z,7.70
2018-03-14T20:13:46.017Z,7.50
2018-03-14T20:16:14.101Z,7.27
2018-03-14T20:18:42.167Z,7.53
2018-03-14T20:21:10.242Z,7.50
2018-03-14T20:23:38.296Z,7.70
2018-03-14T20:26:06.352Z,8.30
2018-03-14T20:28:34.435Z,8.03
2018-03-14T20:31:02.493Z,8.10
2018-03-14T20:33:30.528Z,8.10
2018-03-14T20:35:58.600Z,9.37
2018-03-14T20:38:26.647Z,8.70
2018-03-14T20:40:54.717Z,8.80
2018-03-14T20:43:22.788Z,8.50
2018-03-14T20:45:50.835Z,9.53
2018-03-14T20:48:18.908Z,7.97
2018-03-14T20:50:46.972Z,9.03
2018-03-14T20:53:15.037Z,9.13
2018-03-14T20:55:43.087Z,8.90
2018-03-14T20:58:11.905Z,8.43
2018-03-14T21:00:39.964Z,8.77
2018-03-14T21:03:08.008Z,8.97
2018-03-14T21:05:36.079Z,8.87
2018-03-14T21:08:04.146Z,9.90
2018-03-14T21:10:32.233Z,11.23
2018-03-14T21:13:00.305Z,10.23
2018-03-14T21:15:28.381Z,11.23
2018-03-14T21:17:57.209Z,11.00
2018-03-14T21:20:25.943Z,11.10
2018-03-14T21:22:53.996Z,11.60
2018-03-14T21:25:22.081Z,11.13
2018-03-14T21:27:50.156Z,11.93
2018-03-14T21:30:18.219Z,11.30
2018-03-14T21:32:46.325Z,11.70
2018-03-14T21:35:14.403Z,10.93
2018-03-14T21:37:42.456Z,12.30
2018-03-14T21:40:11.300Z,11.70
2018-03-14T21:42:39.360Z,11.53
2018-03-14T21:45:07.478Z,11.10
2018-03-14T21:47:35.572Z,11.13
2018-03-14T21:50:03.645Z,10.53
2018-03-14T21:52:31.803Z,11.47
2018-03-14T21:54:59.881Z,11.07
2018-03-14T21:57:27.927Z,11.20
2018-03-14T21:59:56.117Z,11.10
2018-03-14T22:02:24.205Z,10.93
2018-03-14T22:04:52.367Z,10.37
2018-03-14T22:07:20.401Z,10.47
2018-03-14T22:09:48.506Z,10.87
2018-03-14T22:12:16.566Z,11.40
2018-03-14T22:14:44.626Z,11.23
2018-03-14T22:17:12.702Z,11.57
2018-03-14T22:19:40.747Z,11.50
2018-03-14T22:22:08.836Z,10.53
2018-03-14T22:24:36.899Z,10.67
2018-03-14T22:27:04.964Z,10.77
2018-03-14T22:29:33.046Z,11.67
2018-03-14T22:32:01.889Z,12.00
2018-03-14T22:34:29.939Z,11.60
2018-03-14T22:36:58.060Z,11.43
2018-03-14T22:39:26.085Z,12.50
2018-03-14T22:41:56.006Z,13.07
2018-03-14T22:44:24.079Z,13.40
2018-03-14T22:46:52.148Z,14.03
2018-03-14T22:49:20.209Z,15.40
2018-03-14T22:51:48.293Z,17.73
2018-03-14T22:54:16.349Z,17.13
2018-03-14T22:56:45.244Z,17.63
2018-03-14T22:59:13.270Z,17.17
2018-03-14T23:01:42.168Z,18.93
2018-03-14T23:04:10.230Z,18.80
2018-03-14T23:06:38.275Z,18.03
2018-03-14T23:09:06.396Z,18.23
2018-03-14T23:11:34.468Z,19.70
2018-03-14T23:14:02.518Z,18.57
2018-03-14T23:16:30.573Z,19.13
2018-03-14T23:18:58.644Z,18.73
2018-03-14T23:21:26.714Z,18.67
2018-03-14T23:23:54.787Z,18.77
2018-03-14T23:26:22.932Z,20.13
2018-03-14T23:28:50.982Z,20.77
2018-03-14T23:31:19.089Z,19.93
2018-03-14T23:33:47.168Z,19.20
2018-03-14T23:36:15.232Z,19.20
2018-03-14T23:38:43.883Z,19.93
2018-03-14T23:41:11.923Z,19.90
2018-03-14T23:43:39.997Z,19.97
2018-03-14T23:46:08.054Z,20.37
2018-03-14T23:48:36.242Z,19.20
2018-03-14T23:51:04.307Z,20.33
2018-03-14T23:53:33.146Z,20.43
2018-03-14T23:56:01.205Z,22.07
2018-03-14T23:58:29.255Z,21.47
